sensor_id;sensor_type;location;lat;lon;timestamp;pressure;altitude;pressure_sealevel;temperature;humidity
11444;BME280;5778;47.856;12.154;2022-11-12T00:02:18;97915.34;;;4.42;100.00
11444;BME280;5778;47.856;12.154;2022-11-12T00:05:30;97924.00;;;4.51;100.00
11444;BME280;5778;47.856;12.154;2022-11-12T00:08:15;97922.75;;;4.47;100.00
11444;BME280;5778;47.856;12.154;2022-11-12T00:11:01;97924.00;;;4.51;100.00
11444;BME280;5778;47.856;12.154;2022-11-12T00:17:30;97919.41;;;4.53;100.00
11444;BME280;5778;47.856;12.154;2022-11-12T00:20:16;97925.44;;;4.61;100.00
11444;BME280;5778;47.856;12.154;2022-11-12T00:23:09;97922.34;;;4.58;100.00
11444;BME280;5778;47.856;12.154;2022-11-12T00:25:58;97924.72;;;4.45;100.00
11444;BME280;5778;47.856;12.154;2022-11-12T00:28:44;97917.09;;;4.50;100.00
11444;BME280;5778;47.856;12.154;2022-11-12T00:31:30;97922.34;;;4.58;100.00
11444;BME280;5778;47.856;12.154;2022-11-12T00:34:18;97922.09;;;4.67;100.00
11444;BME280;5778;47.856;12.154;2022-11-12T00:37:04;97920.03;;;4.77;100.00
11444;BME280;5778;47.856;12.154;2022-11-12T00:39:50;97932.69;;;4.82;100.00
11444;BME280;5778;47.856;12.154;2022-11-12T00:46:02;97930.69;;;4.61;100.00
11444;BME280;5778;47.856;12.154;2022-11-12T00:48:47;97921.78;;;4.62;100.00
11444;BME280;5778;47.856;12.154;2022-11-12T00:51:47;97916.66;;;4.69;100.00
11444;BME280;5778;47.856;12.154;2022-11-12T00:54:34;97914.81;;;4.69;100.00
11444;BME280;5778;47.856;12.154;2022-11-12T00:57:19;97905.53;;;4.59;100.00
11444;BME280;5778;47.856;12.154;2022-11-12T01:00:06;97910.44;;;4.62;100.00
11444;BME280;5778;47.856;12.154;2022-11-12T01:02:55;97905.44;;;4.67;100.00
11444;BME280;5778;47.856;12.154;2022-11-12T01:06:07;97899.88;;;4.62;100.00
11444;BME280;5778;47.856;12.154;2022-11-12T01:08:55;97908.47;;;4.64;100.00
11444;BME280;5778;47.856;12.154;2022-11-12T01:15:07;97903.66;;;4.67;100.00
11444;BME280;5778;47.856;12.154;2022-11-12T01:17:52;97897.66;;;4.51;100.00
11444;BME280;5778;47.856;12.154;2022-11-12T01:20:38;97894.03;;;4.52;100.00
11444;BME280;5778;47.856;12.154;2022-11-12T01:27:06;97890.06;;;4.33;100.00
11444;BME280;5778;47.856;12.154;2022-11-12T01:29:51;97883.09;;;4.40;100.00
11444;BME280;5778;47.856;12.154;2022-11-12T01:36:54;97885.28;;;4.37;100.00
11444;BME280;5778;47.856;12.154;2022-11-12T01:39:39;97887.34;;;4.49;100.00
11444;BME280;5778;47.856;12.154;2022-11-12T01:42:51;97872.16;;;4.29;100.00
11444;BME280;5778;47.856;12.154;2022-11-12T01:45:39;97867.63;;;4.37;100.00
11444;BME280;5778;47.856;12.154;2022-11-12T01:48:29;97862.56;;;4.36;100.00
11444;BME280;5778;47.856;12.154;2022-11-12T01:51:19;97862.97;;;4.47;100.00
11444;BME280;5778;47.856;12.154;2022-11-12T01:54:08;97860.78;;;4.51;100.00
11444;BME280;5778;47.856;12.154;2022-11-12T01:56:55;97853.19;;;4.56;100.00
11444;BME280;5778;47.856;12.154;2022-11-12T01:59:46;97848.63;;;4.50;100.00
11444;BME280;5778;47.856;12.154;2022-11-12T02:02:38;97849.63;;;4.26;100.00
11444;BME280;5778;47.856;12.154;2022-11-12T02:05:42;97862.16;;;4.47;100.00
11444;BME280;5778;47.856;12.154;2022-11-12T02:08:31;97850.66;;;4.40;100.00
11444;BME280;5778;47.856;12.154;2022-11-12T02:11:19;97861.91;;;4.34;100.00
11444;BME280;5778;47.856;12.154;2022-11-12T02:14:05;97849.56;;;4.34;100.00
11444;BME280;5778;47.856;12.154;2022-11-12T02:16:52;97845.69;;;4.45;100.00
11444;BME280;5778;47.856;12.154;2022-11-12T02:19:37;97836.13;;;4.29;100.00
11444;BME280;5778;47.856;12.154;2022-11-12T02:22:25;97840.44;;;4.22;100.00
11444;BME280;5778;47.856;12.154;2022-11-12T02:25:11;97830.84;;;4.29;100.00
11444;BME280;5778;47.856;12.154;2022-11-12T02:27:58;97831.66;;;4.30;100.00
11444;BME280;5778;47.856;12.154;2022-11-12T02:30:46;97831.00;;;4.28;100.00
11444;BME280;5778;47.856;12.154;2022-11-12T02:33:33;97820.44;;;4.13;100.00
11444;BME280;5778;47.856;12.154;2022-11-12T02:39:55;97820.84;;;4.25;100.00
11444;BME280;5778;47.856;12.154;2022-11-12T02:46:22;97830.72;;;4.23;100.00
11444;BME280;5778;47.856;12.154;2022-11-12T02:49:08;97835.41;;;4.35;100.00
11444;BME280;5778;47.856;12.154;2022-11-12T02:52:09;97838.03;;;4.13;100.00
11444;BME280;5778;47.856;12.154;2022-11-12T02:54:56;97837.72;;;4.08;100.00
11444;BME280;5778;47.856;12.154;2022-11-12T02:57:41;97839.72;;;4.06;100.00
11444;BME280;5778;47.856;12.154;2022-11-12T03:00:27;97841.72;;;4.04;100.00
11444;BME280;5778;47.856;12.154;2022-11-12T03:03:24;97854.22;;;4.02;100.00
11444;BME280;5778;47.856;12.154;2022-11-12T03:06:12;97858.31;;;4.04;100.00
11444;BME280;5778;47.856;12.154;2022-11-12T03:08:58;97856.44;;;4.13;100.00
11444;BME280;5778;47.856;12.154;2022-11-12T03:11:45;97860.09;;;4.12;100.00
11444;BME280;5778;47.856;12.154;2022-11-12T03:14:30;97871.19;;;3.99;100.00
11444;BME280;5778;47.856;12.154;2022-11-12T03:17:16;97869.97;;;4.10;100.00
11444;BME280;5778;47.856;12.154;2022-11-12T03:20:03;97867.97;;;4.12;100.00
11444;BME280;5778;47.856;12.154;2022-11-12T03:26:16;97864.63;;;4.26;100.00
11444;BME280;5778;47.856;12.154;2022-11-12T03:29:03;97861.63;;;4.29;100.00
11444;BME280;5778;47.856;12.154;2022-11-12T03:32:15;97864.63;;;4.26;100.00
11444;BME280;5778;47.856;12.154;2022-11-12T03:35:02;97867.81;;;4.13;100.00
11444;BME280;5778;47.856;12.154;2022-11-12T03:37:47;97867.66;;;4.15;100.00
11444;BME280;5778;47.856;12.154;2022-11-12T03:40:32;97866.66;;;4.16;100.00
11444;BME280;5778;47.856;12.154;2022-11-12T03:43:51;97870.56;;;4.20;100.00
11444;BME280;5778;47.856;12.154;2022-11-12T03:46:38;97865.78;;;4.23;100.00
11444;BME280;5778;47.856;12.154;2022-11-12T03:49:24;97868.59;;;4.22;100.00
11444;BME280;5778;47.856;12.154;2022-11-12T03:52:43;97866.81;;;4.14;100.00
11444;BME280;5778;47.856;12.154;2022-11-12T03:55:29;97862.38;;;4.15;100.00
11444;BME280;5778;47.856;12.154;2022-11-12T03:58:15;97861.38;;;4.16;100.00
11444;BME280;5778;47.856;12.154;2022-11-12T04:01:00;97856.25;;;4.22;100.00
11444;BME280;5778;47.856;12.154;2022-11-12T04:04:08;97858.44;;;4.11;100.00
11444;BME280;5778;47.856;12.154;2022-11-12T04:07:28;97855.78;;;3.88;100.00
11444;BME280;5778;47.856;12.154;2022-11-12T04:10:31;97854.19;;;3.79;100.00
11444;BME280;5778;47.856;12.154;2022-11-12T04:13:20;97858.16;;;3.75;100.00
11444;BME280;5778;47.856;12.154;2022-11-12T04:16:13;97858.94;;;3.84;100.00
11444;BME280;5778;47.856;12.154;2022-11-12T04:19:17;97857.16;;;3.84;100.00
11444;BME280;5778;47.856;12.154;2022-11-12T04:25:59;97851.34;;;3.58;100.00
11444;BME280;5778;47.856;12.154;2022-11-12T04:29:02;97848.34;;;3.69;100.00
11444;BME280;5778;47.856;12.154;2022-11-12T04:39:06;97846.88;;;3.67;100.00
11444;BME280;5778;47.856;12.154;2022-11-12T04:41:57;97850.72;;;3.87;100.00
11444;BME280;5778;47.856;12.154;2022-11-12T04:44:59;97856.31;;;3.84;100.00
11444;BME280;5778;47.856;12.154;2022-11-12T04:47:47;97847.41;;;3.85;100.00
11444;BME280;5778;47.856;12.154;2022-11-12T04:50:32;97839.59;;;3.77;100.00
11444;BME280;5778;47.856;12.154;2022-11-12T04:53:22;97844.22;;;3.67;100.00
11444;BME280;5778;47.856;12.154;2022-11-12T04:56:09;97837.66;;;3.63;100.00
11444;BME280;5778;47.856;12.154;2022-11-12T04:58:55;97835.59;;;3.50;100.00
11444;BME280;5778;47.856;12.154;2022-11-12T05:02:10;97842.97;;;3.55;100.00
11444;BME280;5778;47.856;12.154;2022-11-12T05:05:23;97845.00;;;3.45;100.00
11444;BME280;5778;47.856;12.154;2022-11-12T05:08:08;97840.06;;;3.42;100.00
11444;BME280;5778;47.856;12.154;2022-11-12T05:10:54;97840.25;;;3.32;100.00
11444;BME280;5778;47.856;12.154;2022-11-12T05:13:45;97837.16;;;3.29;100.00
11444;BME280;5778;47.856;12.154;2022-11-12T05:16:30;97840.25;;;3.32;100.00
11444;BME280;5778;47.856;12.154;2022-11-12T05:19:16;97839.78;;;3.29;100.00
11444;BME280;5778;47.856;12.154;2022-11-12T05:22:37;97839.75;;;3.37;100.00
11444;BME280;5778;47.856;12.154;2022-11-12T05:25:22;97846.38;;;3.25;100.00
11444;BME280;5778;47.856;12.154;2022-11-12T05:28:08;97846.47;;;3.47;100.00
11444;BME280;5778;47.856;12.154;2022-11-12T05:30:55;97846.00;;;3.36;100.00
11444;BME280;5778;47.856;12.154;2022-11-12T05:34:12;97841.75;;;3.35;100.00
11444;BME280;5778;47.856;12.154;2022-11-12T05:36:58;97843.41;;;3.20;100.00
11444;BME280;5778;47.856;12.154;2022-11-12T05:39:44;97856.56;;;3.20;100.00
11444;BME280;5778;47.856;12.154;2022-11-12T05:42:31;97851.94;;;3.30;100.00
11444;BME280;5778;47.856;12.154;2022-11-12T05:45:17;97859.50;;;3.33;100.00
11444;BME280;5778;47.856;12.154;2022-11-12T05:48:04;97872.19;;;3.21;100.00
11444;BME280;5778;47.856;12.154;2022-11-12T05:50:50;97873.81;;;3.22;100.00
11444;BME280;5778;47.856;12.154;2022-11-12T05:53:45;97866.25;;;3.27;100.00
11444;BME280;5778;47.856;12.154;2022-11-12T05:56:31;97879.06;;;3.30;100.00
11444;BME280;5778;47.856;12.154;2022-11-12T05:59:17;97886.75;;;3.32;100.00
11444;BME280;5778;47.856;12.154;2022-11-12T06:09:28;97888.75;;;3.30;100.00
11444;BME280;5778;47.856;12.154;2022-11-12T06:12:42;97900.59;;;3.10;100.00
11444;BME280;5778;47.856;12.154;2022-11-12T06:15:27;97908.31;;;3.27;100.00
11444;BME280;5778;47.856;12.154;2022-11-12T06:18:13;97904.41;;;3.15;100.00
11444;BME280;5778;47.856;12.154;2022-11-12T06:21:03;97900.94;;;3.15;100.00
11444;BME280;5778;47.856;12.154;2022-11-12T06:24:05;97908.47;;;3.26;100.00
11444;BME280;5778;47.856;12.154;2022-11-12T06:26:53;97905.56;;;3.13;100.00
11444;BME280;5778;47.856;12.154;2022-11-12T06:29:38;97896.81;;;3.12;100.00
11444;BME280;5778;47.856;12.154;2022-11-12T06:32:35;97902.44;;;3.09;100.00
11444;BME280;5778;47.856;12.154;2022-11-12T06:39:02;97907.16;;;3.38;100.00
11444;BME280;5778;47.856;12.154;2022-11-12T06:41:48;97904.88;;;3.27;100.00
11444;BME280;5778;47.856;12.154;2022-11-12T06:44:35;97912.84;;;3.49;100.00
11444;BME280;5778;47.856;12.154;2022-11-12T06:47:20;97907.06;;;3.54;100.00
11444;BME280;5778;47.856;12.154;2022-11-12T06:50:07;97904.34;;;3.31;100.00
11444;BME280;5778;47.856;12.154;2022-11-12T06:52:57;97904.16;;;3.41;100.00
11444;BME280;5778;47.856;12.154;2022-11-12T06:55:42;97903.31;;;3.48;100.00
11444;BME280;5778;47.856;12.154;2022-11-12T06:58:28;97903.25;;;3.64;100.00
11444;BME280;5778;47.856;12.154;2022-11-12T07:01:16;97892.88;;;3.71;100.00
11444;BME280;5778;47.856;12.154;2022-11-12T07:04:18;97904.66;;;3.83;100.00
11444;BME280;5778;47.856;12.154;2022-11-12T07:10:45;97895.16;;;3.82;100.00
11444;BME280;5778;47.856;12.154;2022-11-12T07:13:34;97897.09;;;3.80;100.00
11444;BME280;5778;47.856;12.154;2022-11-12T07:16:22;97891.66;;;3.89;100.00
11444;BME280;5778;47.856;12.154;2022-11-12T07:19:08;97892.69;;;4.03;100.00
11444;BME280;5778;47.856;12.154;2022-11-12T07:21:56;97893.63;;;4.18;100.00
11444;BME280;5778;47.856;12.154;2022-11-12T07:24:41;97894.44;;;4.18;100.00
11444;BME280;5778;47.856;12.154;2022-11-12T07:27:28;97896.13;;;4.11;100.00
11444;BME280;5778;47.856;12.154;2022-11-12T07:30:14;97898.19;;;3.93;100.00
11444;BME280;5778;47.856;12.154;2022-11-12T07:40:12;97896.84;;;4.28;100.00
11444;BME280;5778;47.856;12.154;2022-11-12T07:46:32;97903.19;;;4.64;100.00
11444;BME280;5778;47.856;12.154;2022-11-12T07:49:17;97899.19;;;4.68;100.00
11444;BME280;5778;47.856;12.154;2022-11-12T07:52:13;97895.66;;;4.75;100.00
11444;BME280;5778;47.856;12.154;2022-11-12T07:54:59;97903.50;;;4.83;100.00
11444;BME280;5778;47.856;12.154;2022-11-12T07:57:46;97903.81;;;4.88;100.00
11444;BME280;5778;47.856;12.154;2022-11-12T08:00:31;97920.38;;;4.97;100.00
11444;BME280;5778;47.856;12.154;2022-11-12T08:03:18;97920.28;;;5.05;100.00
11444;BME280;5778;47.856;12.154;2022-11-12T08:09:45;97923.94;;;5.18;100.00
11444;BME280;5778;47.856;12.154;2022-11-12T08:12:38;97924.56;;;5.06;100.00
11444;BME280;5778;47.856;12.154;2022-11-12T08:15:25;97923.03;;;5.11;100.00
11444;BME280;5778;47.856;12.154;2022-11-12T08:18:11;97920.88;;;5.29;100.00
11444;BME280;5778;47.856;12.154;2022-11-12T08:21:01;97909.88;;;5.26;100.00
11444;BME280;5778;47.856;12.154;2022-11-12T08:23:54;97911.72;;;5.40;100.00
11444;BME280;5778;47.856;12.154;2022-11-12T08:26:39;97919.00;;;5.67;100.00
11444;BME280;5778;47.856;12.154;2022-11-12T08:29:25;97913.00;;;5.73;100.00
11444;BME280;5778;47.856;12.154;2022-11-12T08:32:18;97921.53;;;5.75;100.00
11444;BME280;5778;47.856;12.154;2022-11-12T08:35:07;97926.44;;;6.07;100.00
11444;BME280;5778;47.856;12.154;2022-11-12T08:37:56;97928.34;;;6.13;100.00
11444;BME280;5778;47.856;12.154;2022-11-12T08:40:42;97929.63;;;6.17;100.00
11444;BME280;5778;47.856;12.154;2022-11-12T08:43:40;97936.66;;;6.45;100.00
11444;BME280;5778;47.856;12.154;2022-11-12T08:46:26;97930.91;;;6.42;100.00
11444;BME280;5778;47.856;12.154;2022-11-12T08:49:13;97932.31;;;6.59;100.00
11444;BME280;5778;47.856;12.154;2022-11-12T08:52:17;97932.03;;;6.89;100.00
11444;BME280;5778;47.856;12.154;2022-11-12T08:55:04;97931.13;;;7.03;100.00
11444;BME280;5778;47.856;12.154;2022-11-12T08:57:49;97937.25;;;7.04;100.00
11444;BME280;5778;47.856;12.154;2022-11-12T09:00:37;97932.56;;;6.85;100.00
11444;BME280;5778;47.856;12.154;2022-11-12T09:03:25;97935.63;;;6.82;100.00
11444;BME280;5778;47.856;12.154;2022-11-12T09:06:19;97938.78;;;7.19;100.00
11444;BME280;5778;47.856;12.154;2022-11-12T09:09:05;97940.03;;;7.51;100.00
11444;BME280;5778;47.856;12.154;2022-11-12T09:12:05;97937.44;;;7.57;100.00
11444;BME280;5778;47.856;12.154;2022-11-12T09:14:50;97932.91;;;7.79;100.00
11444;BME280;5778;47.856;12.154;2022-11-12T09:17:35;97935.41;;;7.93;100.00
11444;BME280;5778;47.856;12.154;2022-11-12T09:20:21;97927.16;;;8.16;100.00
11444;BME280;5778;47.856;12.154;2022-11-12T09:23:15;97930.41;;;8.11;100.00
11444;BME280;5778;47.856;12.154;2022-11-12T09:26:01;97937.06;;;8.35;100.00
11444;BME280;5778;47.856;12.154;2022-11-12T09:28:46;97926.53;;;8.14;100.00
11444;BME280;5778;47.856;12.154;2022-11-12T09:31:36;97930.28;;;8.26;100.00
11444;BME280;5778;47.856;12.154;2022-11-12T09:34:22;97925.88;;;8.46;100.00
11444;BME280;5778;47.856;12.154;2022-11-12T09:37:08;97927.56;;;8.73;100.00
11444;BME280;5778;47.856;12.154;2022-11-12T09:39:55;97928.81;;;8.83;100.00
11444;BME280;5778;47.856;12.154;2022-11-12T09:46:30;97930.06;;;9.07;100.00
11444;BME280;5778;47.856;12.154;2022-11-12T09:49:20;97928.44;;;9.12;100.00
11444;BME280;5778;47.856;12.154;2022-11-12T09:52:23;97915.78;;;8.95;100.00
11444;BME280;5778;47.856;12.154;2022-11-12T09:55:17;97921.88;;;9.02;100.00
11444;BME280;5778;47.856;12.154;2022-11-12T09:58:10;97907.00;;;9.20;100.00
11444;BME280;5778;47.856;12.154;2022-11-12T10:01:13;97911.47;;;9.39;100.00
11444;BME280;5778;47.856;12.154;2022-11-12T10:04:22;97911.69;;;9.38;100.00
11444;BME280;5778;47.856;12.154;2022-11-12T10:07:25;97906.56;;;9.56;100.00
11444;BME280;5778;47.856;12.154;2022-11-12T10:10:23;97904.94;;;9.55;100.00
11444;BME280;5778;47.856;12.154;2022-11-12T10:16:54;97898.09;;;9.85;100.00
11444;BME280;5778;47.856;12.154;2022-11-12T10:20:04;97889.53;;;9.83;100.00
11444;BME280;5778;47.856;12.154;2022-11-12T10:23:25;97897.50;;;9.89;100.00
11444;BME280;5778;47.856;12.154;2022-11-12T10:26:15;97896.59;;;10.15;100.00
11444;BME280;5778;47.856;12.154;2022-11-12T10:29:08;97882.72;;;10.06;100.00
11444;BME280;5778;47.856;12.154;2022-11-12T10:32:16;97892.41;;;10.38;100.00
11444;BME280;5778;47.856;12.154;2022-11-12T10:35:06;97883.28;;;10.90;100.00
11444;BME280;5778;47.856;12.154;2022-11-12T10:37:55;97871.81;;;11.14;100.00
11444;BME280;5778;47.856;12.154;2022-11-12T10:40:42;97871.28;;;11.05;100.00
11444;BME280;5778;47.856;12.154;2022-11-12T10:43:30;97864.16;;;11.24;100.00
11444;BME280;5778;47.856;12.154;2022-11-12T10:46:18;97849.31;;;11.10;100.00
11444;BME280;5778;47.856;12.154;2022-11-12T10:49:05;97857.38;;;11.03;100.00
11444;BME280;5778;47.856;12.154;2022-11-12T10:52:20;97843.91;;;11.23;100.00
11444;BME280;5778;47.856;12.154;2022-11-12T10:55:14;97848.03;;;11.37;100.00
11444;BME280;5778;47.856;12.154;2022-11-12T10:58:12;97843.03;;;11.47;100.00
11444;BME280;5778;47.856;12.154;2022-11-12T11:01:03;97846.22;;;11.37;100.00
11444;BME280;5778;47.856;12.154;2022-11-12T11:04:00;97839.50;;;11.71;100.00
11444;BME280;5778;47.856;12.154;2022-11-12T11:07:15;97834.13;;;11.77;100.00
11444;BME280;5778;47.856;12.154;2022-11-12T11:10:10;97839.41;;;11.66;100.00
11444;BME280;5778;47.856;12.154;2022-11-12T11:13:25;97841.47;;;11.82;100.00
11444;BME280;5778;47.856;12.154;2022-11-12T11:16:14;97837.63;;;12.25;100.00
11444;BME280;5778;47.856;12.154;2022-11-12T11:19:02;97833.66;;;11.98;100.00
11444;BME280;5778;47.856;12.154;2022-11-12T11:25:32;97825.03;;;11.67;100.00
11444;BME280;5778;47.856;12.154;2022-11-12T11:28:32;97823.22;;;11.97;100.00
11444;BME280;5778;47.856;12.154;2022-11-12T11:38:32;97821.34;;;12.86;100.00
11444;BME280;5778;47.856;12.154;2022-11-12T11:41:47;97808.50;;;13.17;100.00
11444;BME280;5778;47.856;12.154;2022-11-12T11:44:38;97810.16;;;13.30;100.00
11444;BME280;5778;47.856;12.154;2022-11-12T11:47:36;97806.28;;;13.60;100.00
11444;BME280;5778;47.856;12.154;2022-11-12T11:50:28;97807.06;;;13.61;100.00
11444;BME280;5778;47.856;12.154;2022-11-12T11:53:20;97796.69;;;13.87;100.00
11444;BME280;5778;47.856;12.154;2022-11-12T11:56:15;97792.34;;;13.47;100.00
11444;BME280;5778;47.856;12.154;2022-11-12T11:59:12;97790.19;;;13.83;100.00
11444;BME280;5778;47.856;12.154;2022-11-12T12:02:33;97783.94;;;13.66;100.00
11444;BME280;5778;47.856;12.154;2022-11-12T12:05:36;97782.41;;;13.82;100.00
11444;BME280;5778;47.856;12.154;2022-11-12T12:08:32;97783.13;;;13.66;100.00
11444;BME280;5778;47.856;12.154;2022-11-12T12:11:23;97781.00;;;13.91;100.00
11444;BME280;5778;47.856;12.154;2022-11-12T12:14:33;97777.34;;;14.08;100.00
11444;BME280;5778;47.856;12.154;2022-11-12T12:17:37;97765.25;;;14.06;100.00
11444;BME280;5778;47.856;12.154;2022-11-12T12:20:34;97759.44;;;14.53;100.00
11444;BME280;5778;47.856;12.154;2022-11-12T12:23:25;97759.34;;;14.48;100.00
11444;BME280;5778;47.856;12.154;2022-11-12T12:26:21;97750.38;;;14.71;100.00
11444;BME280;5778;47.856;12.154;2022-11-12T12:29:11;97751.69;;;14.68;100.00
11444;BME280;5778;47.856;12.154;2022-11-12T12:32:03;97747.28;;;14.62;100.00
11444;BME280;5778;47.856;12.154;2022-11-12T12:35:21;97742.47;;;14.48;100.00
11444;BME280;5778;47.856;12.154;2022-11-12T12:38:12;97740.78;;;14.75;100.00
11444;BME280;5778;47.856;12.154;2022-11-12T12:41:04;97736.56;;;14.79;100.00
11444;BME280;5778;47.856;12.154;2022-11-12T12:44:01;97732.19;;;14.40;100.00
11444;BME280;5778;47.856;12.154;2022-11-12T12:46:51;97726.69;;;14.46;100.00
11444;BME280;5778;47.856;12.154;2022-11-12T12:49:40;97728.69;;;14.56;100.00
11444;BME280;5778;47.856;12.154;2022-11-12T12:52:27;97724.88;;;14.52;100.00
11444;BME280;5778;47.856;12.154;2022-11-12T12:55:35;97717.25;;;14.44;100.00
11444;BME280;5778;47.856;12.154;2022-11-12T12:58:25;97719.34;;;14.42;100.00
11444;BME280;5778;47.856;12.154;2022-11-12T13:01:27;97724.72;;;14.14;100.00
11444;BME280;5778;47.856;12.154;2022-11-12T13:04:14;97727.94;;;13.99;100.00
11444;BME280;5778;47.856;12.154;2022-11-12T13:07:05;97724.72;;;13.86;100.00
11444;BME280;5778;47.856;12.154;2022-11-12T13:09:50;97717.25;;;13.88;100.00
11444;BME280;5778;47.856;12.154;2022-11-12T13:13:03;97706.75;;;13.98;100.00
11444;BME280;5778;47.856;12.154;2022-11-12T13:15:51;97708.28;;;13.94;100.00
11444;BME280;5778;47.856;12.154;2022-11-12T13:18:59;97705.34;;;13.79;100.00
11444;BME280;5778;47.856;12.154;2022-11-12T13:21:45;97706.75;;;13.70;100.00
11444;BME280;5778;47.856;12.154;2022-11-12T13:25:01;97698.19;;;13.56;100.00
11444;BME280;5778;47.856;12.154;2022-11-12T13:28:10;97695.50;;;12.94;100.00
11444;BME280;5778;47.856;12.154;2022-11-12T13:31:01;97698.78;;;12.96;100.00
11444;BME280;5778;47.856;12.154;2022-11-12T13:33:49;97691.31;;;12.86;100.00
11444;BME280;5778;47.856;12.154;2022-11-12T13:36:58;97691.34;;;12.98;100.00
11444;BME280;5778;47.856;12.154;2022-11-12T13:39:45;97700.41;;;12.97;100.00
11444;BME280;5778;47.856;12.154;2022-11-12T13:43:02;97689.94;;;12.84;100.00
11444;BME280;5778;47.856;12.154;2022-11-12T13:45:52;97692.72;;;12.77;100.00
11444;BME280;5778;47.856;12.154;2022-11-12T13:48:42;97685.06;;;13.04;100.00
11444;BME280;5778;47.856;12.154;2022-11-12T13:51:52;97683.19;;;12.93;100.00
11444;BME280;5778;47.856;12.154;2022-11-12T13:54:41;97685.75;;;12.88;100.00
11444;BME280;5778;47.856;12.154;2022-11-12T13:57:29;97677.16;;;12.40;100.00
11444;BME280;5778;47.856;12.154;2022-11-12T14:00:21;97685.13;;;12.17;100.00
11444;BME280;5778;47.856;12.154;2022-11-12T14:03:18;97679.59;;;11.89;100.00
11444;BME280;5778;47.856;12.154;2022-11-12T14:06:16;97677.84;;;11.83;100.00
11444;BME280;5778;47.856;12.154;2022-11-12T14:09:26;97675.94;;;11.72;100.00
11444;BME280;5778;47.856;12.154;2022-11-12T14:15:56;97663.38;;;11.61;100.00
11444;BME280;5778;47.856;12.154;2022-11-12T14:18:58;97672.59;;;11.58;100.00
11444;BME280;5778;47.856;12.154;2022-11-12T14:22:11;97673.09;;;11.37;100.00
11444;BME280;5778;47.856;12.154;2022-11-12T14:24:59;97670.78;;;11.41;100.00
11444;BME280;5778;47.856;12.154;2022-11-12T14:27:48;97665.59;;;11.46;100.00
11444;BME280;5778;47.856;12.154;2022-11-12T14:30:33;97666.91;;;11.55;100.00
11444;BME280;5778;47.856;12.154;2022-11-12T14:33:32;97665.44;;;11.59;100.00
11444;BME280;5778;47.856;12.154;2022-11-12T14:36:22;97665.16;;;11.67;100.00
11444;BME280;5778;47.856;12.154;2022-11-12T14:39:10;97662.16;;;11.57;100.00
11444;BME280;5778;47.856;12.154;2022-11-12T14:45:30;97655.66;;;11.53;100.00
11444;BME280;5778;47.856;12.154;2022-11-12T14:48:16;97658.94;;;11.55;100.00
11444;BME280;5778;47.856;12.154;2022-11-12T14:51:04;97662.91;;;11.64;100.00
11444;BME280;5778;47.856;12.154;2022-11-12T14:54:09;97657.28;;;11.54;100.00
11444;BME280;5778;47.856;12.154;2022-11-12T14:57:00;97650.53;;;11.40;100.00
11444;BME280;5778;47.856;12.154;2022-11-12T14:59:48;97653.94;;;11.11;100.00
11444;BME280;5778;47.856;12.154;2022-11-12T15:06:31;97629.78;;;10.94;100.00
11444;BME280;5778;47.856;12.154;2022-11-12T15:09:17;97638.03;;;10.86;100.00
11444;BME280;5778;47.856;12.154;2022-11-12T15:15:49;97633.38;;;10.64;100.00
11444;BME280;5778;47.856;12.154;2022-11-12T15:18:37;97628.66;;;10.66;100.00
11444;BME280;5778;47.856;12.154;2022-11-12T15:21:59;97626.06;;;10.59;100.00
11444;BME280;5778;47.856;12.154;2022-11-12T15:24:45;97629.50;;;10.42;100.00
11444;BME280;5778;47.856;12.154;2022-11-12T15:27:34;97632.09;;;10.48;100.00
11444;BME280;5778;47.856;12.154;2022-11-12T15:30:21;97632.22;;;10.35;100.00
11444;BME280;5778;47.856;12.154;2022-11-12T15:37:02;97624.06;;;10.12;100.00
11444;BME280;5778;47.856;12.154;2022-11-12T15:39:50;97628.78;;;10.10;100.00
11444;BME280;5778;47.856;12.154;2022-11-12T15:42:52;97630.75;;;9.90;100.00
11444;BME280;5778;47.856;12.154;2022-11-12T15:45:37;97635.53;;;9.75;100.00
11444;BME280;5778;47.856;12.154;2022-11-12T15:48:23;97635.84;;;9.92;100.00
11444;BME280;5778;47.856;12.154;2022-11-12T15:51:09;97628.47;;;9.94;100.00
11444;BME280;5778;47.856;12.154;2022-11-12T15:57:40;97622.25;;;9.07;100.00
11444;BME280;5778;47.856;12.154;2022-11-12T16:00:30;97621.78;;;9.16;100.00
11444;BME280;5778;47.856;12.154;2022-11-12T16:03:18;97627.91;;;9.17;100.00
11444;BME280;5778;47.856;12.154;2022-11-12T16:09:45;97626.38;;;8.96;100.00
11444;BME280;5778;47.856;12.154;2022-11-12T16:12:56;97632.09;;;8.87;100.00
11444;BME280;5778;47.856;12.154;2022-11-12T16:15:43;97628.47;;;8.75;100.00
11444;BME280;5778;47.856;12.154;2022-11-12T16:18:28;97627.25;;;8.71;100.00
11444;BME280;5778;47.856;12.154;2022-11-12T16:21:13;97627.91;;;8.60;100.00
11444;BME280;5778;47.856;12.154;2022-11-12T16:24:01;97623.84;;;8.51;100.00
11444;BME280;5778;47.856;12.154;2022-11-12T16:26:46;97626.50;;;8.51;100.00
11444;BME280;5778;47.856;12.154;2022-11-12T16:29:33;97630.59;;;8.40;100.00
11444;BME280;5778;47.856;12.154;2022-11-12T16:32:27;97627.97;;;8.21;100.00
11444;BME280;5778;47.856;12.154;2022-11-12T16:35:13;97626.34;;;8.26;100.00
11444;BME280;5778;47.856;12.154;2022-11-12T16:37:59;97627.34;;;8.19;100.00
11444;BME280;5778;47.856;12.154;2022-11-12T16:40:44;97621.03;;;8.20;100.00
11444;BME280;5778;47.856;12.154;2022-11-12T16:43:30;97628.94;;;8.13;100.00
11444;BME280;5778;47.856;12.154;2022-11-12T16:46:23;97622.03;;;8.06;100.00
11444;BME280;5778;47.856;12.154;2022-11-12T16:49:10;97627.13;;;7.88;100.00
11444;BME280;5778;47.856;12.154;2022-11-12T16:51:56;97627.31;;;7.73;100.00
11444;BME280;5778;47.856;12.154;2022-11-12T16:54:42;97633.44;;;7.80;100.00
11444;BME280;5778;47.856;12.154;2022-11-12T16:57:27;97624.06;;;7.78;100.00
11444;BME280;5778;47.856;12.154;2022-11-12T17:00:14;97622.81;;;7.61;100.00
11444;BME280;5778;47.856;12.154;2022-11-12T17:06:58;97619.94;;;7.43;100.00